DSNT2: Lake Texoma, Denison Dam

Data processed at Fri Jan 05 2018 23:58


All information presented herein is the property of the government of the United States of America and may be revised or deleted at any time without prior notice.
Dissemination of this information without the expressed written consent of the Public Affairs Office, Tulsa District U.S. Army Corps of Engineers is strictly prohibited.
These data are gathered electronically and, as presented, have not undergone any form of quality control. These data are not guaranteed to be valid or correct.
Go to home page.
Go to station list.

Upstream stations:

Downstream station:
Previous Day
Next Day
Current Day
    
SHEF ID:       DSNT2     Lake Texoma, Denison Dam
STATION TYPE:  Reservoir
Normal Pool:  Bottom =   590.00, Top =   616.90

               PRECIP PRECIP(A) ELEVATION   STORAGE   TW-ELEV    INFLOW   RELEASE  AIR-TEMP  WIND-DIRWIND-SPEED REL-HUMID SOLAR-RAD   VOLTAGE  BAT-LOAD
                   in        in        ft     ac-ft        ft       cfs       cfs         F       deg       mph         %      W/m2      volt      volt
              Ccp-Rev   Ccp-Rev   Ccp-Rev   Ccp-Rev   Ccp-Rev  Regi-Rev  Regi-Rev   Ccp-Rev   Ccp-Rev   Ccp-Rev   Ccp-Rev   Ccp-Rev   Ccp-Rev   Ccp-Rev
(US/Central)
01/03 00:00      0.00      0.00    617.44   2521426    506.57         0      4900     25.48    280.70      7.53     60.74      0.00     12.95     12.65
01/03 01:00      0.00      0.00    617.43   2520657    506.60         0      4900     21.20    253.90      7.35     65.63      0.00     12.94     12.60
01/03 02:00      0.00      0.00    617.43   2520657    506.56         0      4900     22.53    258.20      8.70     64.77      0.00     12.92     12.60
01/03 03:00      0.00      0.00    617.43   2520657    506.59         0      4900     22.53    263.00      9.07     66.12      0.00     12.90     12.60
01/03 04:00      0.00      0.00    617.41   2519120    506.58         0      4900     18.79    255.00      8.83     73.57      0.00     12.88     12.54
01/03 05:00      0.00      0.00    617.41   2519120    506.56         0      4900     20.43    260.70      9.44     72.15      0.00     12.87     12.54
01/03 06:00      0.00      0.00    617.41   2519120    506.59         0      4900     22.41    265.10     11.89     63.48      0.00     12.86     12.54
01/03 07:00      0.00      0.00    617.40   2518351    506.61         0      4900     19.89    258.40      7.06     69.83      0.00     12.85     12.54
01/03 08:00      0.00      0.00    617.40   2518351    506.57         0      4900     20.34    258.40      6.68     68.68     26.00     12.95     12.54
01/03 09:00      0.00      0.00    617.40   2518351    506.61         0      4900     24.73    264.80      7.78     64.53    230.00     13.82     12.60
01/03 10:00      0.00      0.00    617.40   2518351    506.56         0      4900     27.91    282.90     17.36     61.54    418.00     13.72     13.48
01/03 11:00      0.00      0.00    617.40   2518351    506.57         0      4900     29.34    305.60     15.09     56.53    560.00     13.71     13.88
01/03 12:00      0.00      0.00    617.37   2516045    506.56         0      4900     34.18    311.10     12.18     47.31    647.00     13.84     14.18
01/03 13:00      0.00      0.00    617.35   2514508    506.57         0      4900     37.26    319.80      7.00     44.51    661.00     14.35     13.59
01/03 14:00      0.00      0.00    617.36   2515276    506.59         0      4900     40.98    301.00      6.36     36.75    611.00     13.76     13.59
01/03 15:00      0.00      0.00    617.37   2516045    506.60         0      4900     43.50    281.20      6.04     41.81    496.00     13.74     14.12
01/03 16:00      0.00      0.00    617.36   2515276    506.61         0      4900     45.39    287.80     11.66     39.99    330.00     14.29     14.06
01/03 17:00      0.00      0.00    617.35   2514508    506.61         1      4900     45.82    313.80     16.18     42.61    126.00     13.30     13.24
01/03 18:00      0.00      0.00    617.34   2513739    506.60         1      4900     44.73    336.90     10.26     39.38      1.00     13.12     13.00
01/03 19:00      0.00      0.00    617.35   2514508    506.58         1      4900     43.18    337.00     14.53     42.80      0.00     13.07     12.77
01/03 20:00      0.00      0.00    617.34   2513739    506.56         1      4900     42.42    359.30     11.92     46.58      0.00     13.04     12.71
01/03 21:00      0.00      0.00    617.33   2512970    506.58         1      4900     39.24      9.40      9.38     44.26      0.00     13.02     12.71
01/03 22:00      0.00      0.00    617.32   2512202    506.57         1      4900     36.14     35.40      5.18     45.42      0.00     13.01     12.65
01/03 23:00      0.00      0.00    617.31   2511433    506.59         1      4900     36.25     59.50      1.68     47.80      0.00     12.99     12.65